sensor_id;sensor_type;location;lat;lon;timestamp;temperature;humidity
21312;DHT22;18076;52.154;10.570;2024-02-16T00:01:01;9.90;99.90
21312;DHT22;18076;52.154;10.570;2024-02-16T00:03:27;9.90;99.90
21312;DHT22;18076;52.154;10.570;2024-02-16T00:05:53;10.00;99.90
21312;DHT22;18076;52.154;10.570;2024-02-16T00:08:18;10.00;99.90
21312;DHT22;18076;52.154;10.570;2024-02-16T00:10:45;10.10;99.90
21312;DHT22;18076;52.154;10.570;2024-02-16T00:13:11;10.10;99.90
21312;DHT22;18076;52.154;10.570;2024-02-16T00:15:37;10.20;99.90
21312;DHT22;18076;52.154;10.570;2024-02-16T00:18:04;10.20;99.90
21312;DHT22;18076;52.154;10.570;2024-02-16T00:20:29;10.30;99.90
21312;DHT22;18076;52.154;10.570;2024-02-16T00:22:56;10.20;99.90
21312;DHT22;18076;52.154;10.570;2024-02-16T00:25:22;10.10;99.90
21312;DHT22;18076;52.154;10.570;2024-02-16T00:27:48;10.00;99.90
21312;DHT22;18076;52.154;10.570;2024-02-16T00:30:13;9.90;99.90
21312;DHT22;18076;52.154;10.570;2024-02-16T00:32:41;9.90;99.90
21312;DHT22;18076;52.154;10.570;2024-02-16T00:35:06;9.90;99.90
21312;DHT22;18076;52.154;10.570;2024-02-16T00:37:32;9.90;99.90
21312;DHT22;18076;52.154;10.570;2024-02-16T00:39:57;9.80;99.90
21312;DHT22;18076;52.154;10.570;2024-02-16T00:42:23;9.80;99.90
21312;DHT22;18076;52.154;10.570;2024-02-16T00:44:49;9.90;99.90
21312;DHT22;18076;52.154;10.570;2024-02-16T00:47:14;9.80;99.90
21312;DHT22;18076;52.154;10.570;2024-02-16T00:49:42;9.70;99.90
21312;DHT22;18076;52.154;10.570;2024-02-16T00:52:07;9.70;99.90
21312;DHT22;18076;52.154;10.570;2024-02-16T00:54:32;9.70;99.90
21312;DHT22;18076;52.154;10.570;2024-02-16T00:56:58;9.70;99.90
21312;DHT22;18076;52.154;10.570;2024-02-16T00:59:28;9.60;99.90
21312;DHT22;18076;52.154;10.570;2024-02-16T01:01:53;9.50;99.90
21312;DHT22;18076;52.154;10.570;2024-02-16T01:04:19;9.50;99.90
21312;DHT22;18076;52.154;10.570;2024-02-16T01:06:44;9.40;99.90
21312;DHT22;18076;52.154;10.570;2024-02-16T01:09:11;9.40;99.90
21312;DHT22;18076;52.154;10.570;2024-02-16T01:11:40;9.40;99.90
21312;DHT22;18076;52.154;10.570;2024-02-16T01:14:05;9.30;99.90
21312;DHT22;18076;52.154;10.570;2024-02-16T01:16:31;9.40;99.90
21312;DHT22;18076;52.154;10.570;2024-02-16T01:18:56;9.30;99.90
21312;DHT22;18076;52.154;10.570;2024-02-16T01:21:22;9.30;99.90
21312;DHT22;18076;52.154;10.570;2024-02-16T01:23:48;9.40;99.90
21312;DHT22;18076;52.154;10.570;2024-02-16T01:26:13;9.30;99.90
21312;DHT22;18076;52.154;10.570;2024-02-16T01:28:39;9.40;99.90
21312;DHT22;18076;52.154;10.570;2024-02-16T01:31:05;9.30;99.90
21312;DHT22;18076;52.154;10.570;2024-02-16T01:33:30;9.40;99.90
21312;DHT22;18076;52.154;10.570;2024-02-16T01:35:59;9.30;99.90
21312;DHT22;18076;52.154;10.570;2024-02-16T01:38:25;9.30;99.90
21312;DHT22;18076;52.154;10.570;2024-02-16T01:40:51;9.30;99.90
21312;DHT22;18076;52.154;10.570;2024-02-16T01:43:20;9.20;99.90
21312;DHT22;18076;52.154;10.570;2024-02-16T01:45:45;9.20;99.90
21312;DHT22;18076;52.154;10.570;2024-02-16T01:48:11;9.20;99.90
21312;DHT22;18076;52.154;10.570;2024-02-16T01:50:37;9.10;99.90
21312;DHT22;18076;52.154;10.570;2024-02-16T01:53:02;9.10;99.90
21312;DHT22;18076;52.154;10.570;2024-02-16T01:55:28;9.00;99.90
21312;DHT22;18076;52.154;10.570;2024-02-16T01:57:54;9.00;99.90
21312;DHT22;18076;52.154;10.570;2024-02-16T02:00:20;8.90;99.90
21312;DHT22;18076;52.154;10.570;2024-02-16T02:02:46;8.90;99.90
21312;DHT22;18076;52.154;10.570;2024-02-16T02:05:12;8.80;99.90
21312;DHT22;18076;52.154;10.570;2024-02-16T02:07:38;8.70;99.90
21312;DHT22;18076;52.154;10.570;2024-02-16T02:10:03;8.80;99.90
21312;DHT22;18076;52.154;10.570;2024-02-16T02:12:29;8.90;99.90
21312;DHT22;18076;52.154;10.570;2024-02-16T02:14:55;8.90;99.90
21312;DHT22;18076;52.154;10.570;2024-02-16T02:17:20;9.00;99.90
21312;DHT22;18076;52.154;10.570;2024-02-16T02:19:46;9.00;99.90
21312;DHT22;18076;52.154;10.570;2024-02-16T02:22:13;9.00;99.90
21312;DHT22;18076;52.154;10.570;2024-02-16T02:24:39;9.00;99.90
21312;DHT22;18076;52.154;10.570;2024-02-16T02:27:04;9.00;99.90
21312;DHT22;18076;52.154;10.570;2024-02-16T02:29:30;9.00;99.90
21312;DHT22;18076;52.154;10.570;2024-02-16T02:31:55;9.20;99.90
21312;DHT22;18076;52.154;10.570;2024-02-16T02:34:21;9.20;99.90
21312;DHT22;18076;52.154;10.570;2024-02-16T02:36:46;9.20;99.90
21312;DHT22;18076;52.154;10.570;2024-02-16T02:39:12;9.20;99.90
21312;DHT22;18076;52.154;10.570;2024-02-16T02:41:38;9.20;99.90
21312;DHT22;18076;52.154;10.570;2024-02-16T02:44:04;9.20;99.90
21312;DHT22;18076;52.154;10.570;2024-02-16T02:46:30;9.10;99.90
21312;DHT22;18076;52.154;10.570;2024-02-16T02:48:56;9.20;99.90
21312;DHT22;18076;52.154;10.570;2024-02-16T02:51:21;9.20;99.90
21312;DHT22;18076;52.154;10.570;2024-02-16T02:53:47;9.20;99.90
21312;DHT22;18076;52.154;10.570;2024-02-16T02:56:12;9.10;99.90
21312;DHT22;18076;52.154;10.570;2024-02-16T02:58:41;9.10;99.90
21312;DHT22;18076;52.154;10.570;2024-02-16T03:01:06;9.10;99.90
21312;DHT22;18076;52.154;10.570;2024-02-16T03:03:33;9.00;99.90
21312;DHT22;18076;52.154;10.570;2024-02-16T03:05:59;9.00;99.90
21312;DHT22;18076;52.154;10.570;2024-02-16T03:08:25;9.00;99.90
21312;DHT22;18076;52.154;10.570;2024-02-16T03:10:50;9.00;99.90
21312;DHT22;18076;52.154;10.570;2024-02-16T03:13:17;9.00;99.90
21312;DHT22;18076;52.154;10.570;2024-02-16T03:15:43;8.90;99.90
21312;DHT22;18076;52.154;10.570;2024-02-16T03:18:09;8.90;99.90
21312;DHT22;18076;52.154;10.570;2024-02-16T03:20:34;8.90;99.90
21312;DHT22;18076;52.154;10.570;2024-02-16T03:23:01;8.80;99.90
21312;DHT22;18076;52.154;10.570;2024-02-16T03:25:26;8.80;99.90
21312;DHT22;18076;52.154;10.570;2024-02-16T03:27:52;8.70;99.90
21312;DHT22;18076;52.154;10.570;2024-02-16T03:30:20;8.60;99.90
21312;DHT22;18076;52.154;10.570;2024-02-16T03:32:50;8.60;99.90
21312;DHT22;18076;52.154;10.570;2024-02-16T03:35:16;8.60;99.90
21312;DHT22;18076;52.154;10.570;2024-02-16T03:37:41;8.50;99.90
21312;DHT22;18076;52.154;10.570;2024-02-16T03:40:07;8.40;99.90
21312;DHT22;18076;52.154;10.570;2024-02-16T03:42:33;8.40;99.90
21312;DHT22;18076;52.154;10.570;2024-02-16T03:44:59;8.40;99.90
21312;DHT22;18076;52.154;10.570;2024-02-16T03:47:25;8.30;99.90
21312;DHT22;18076;52.154;10.570;2024-02-16T03:49:51;8.20;99.90
21312;DHT22;18076;52.154;10.570;2024-02-16T03:52:17;8.20;99.90
21312;DHT22;18076;52.154;10.570;2024-02-16T03:54:42;8.20;99.90
21312;DHT22;18076;52.154;10.570;2024-02-16T03:57:09;8.30;99.90
21312;DHT22;18076;52.154;10.570;2024-02-16T03:59:36;8.50;99.90
21312;DHT22;18076;52.154;10.570;2024-02-16T04:02:02;8.50;99.90
21312;DHT22;18076;52.154;10.570;2024-02-16T04:04:28;8.40;99.90
21312;DHT22;18076;52.154;10.570;2024-02-16T04:06:53;8.30;99.90
21312;DHT22;18076;52.154;10.570;2024-02-16T04:09:19;8.20;99.90
21312;DHT22;18076;52.154;10.570;2024-02-16T04:11:45;8.20;99.90
21312;DHT22;18076;52.154;10.570;2024-02-16T04:14:11;8.10;99.90
21312;DHT22;18076;52.154;10.570;2024-02-16T04:16:36;8.10;99.90
21312;DHT22;18076;52.154;10.570;2024-02-16T04:19:02;8.10;99.90
21312;DHT22;18076;52.154;10.570;2024-02-16T04:21:28;8.10;99.90
21312;DHT22;18076;52.154;10.570;2024-02-16T04:23:53;8.00;99.90
21312;DHT22;18076;52.154;10.570;2024-02-16T04:26:19;8.00;99.90
21312;DHT22;18076;52.154;10.570;2024-02-16T04:28:44;8.00;99.90
21312;DHT22;18076;52.154;10.570;2024-02-16T04:31:10;8.00;99.90
21312;DHT22;18076;52.154;10.570;2024-02-16T04:33:36;7.90;99.90
21312;DHT22;18076;52.154;10.570;2024-02-16T04:36:01;8.00;99.90
21312;DHT22;18076;52.154;10.570;2024-02-16T04:38:27;8.10;99.90
21312;DHT22;18076;52.154;10.570;2024-02-16T04:40:52;8.00;99.90
21312;DHT22;18076;52.154;10.570;2024-02-16T04:43:18;8.10;99.90
21312;DHT22;18076;52.154;10.570;2024-02-16T04:45:43;8.10;99.90
21312;DHT22;18076;52.154;10.570;2024-02-16T04:48:09;8.10;99.90
21312;DHT22;18076;52.154;10.570;2024-02-16T04:50:34;8.10;99.90
21312;DHT22;18076;52.154;10.570;2024-02-16T04:53:00;8.20;99.90
21312;DHT22;18076;52.154;10.570;2024-02-16T04:55:29;8.30;99.90
21312;DHT22;18076;52.154;10.570;2024-02-16T04:57:56;8.30;99.90
21312;DHT22;18076;52.154;10.570;2024-02-16T05:00:22;8.40;99.90
21312;DHT22;18076;52.154;10.570;2024-02-16T05:02:47;8.50;99.90
21312;DHT22;18076;52.154;10.570;2024-02-16T05:05:13;8.70;99.90
21312;DHT22;18076;52.154;10.570;2024-02-16T05:07:38;8.80;99.90
21312;DHT22;18076;52.154;10.570;2024-02-16T05:10:07;8.90;99.90
21312;DHT22;18076;52.154;10.570;2024-02-16T05:12:33;9.10;99.90
21312;DHT22;18076;52.154;10.570;2024-02-16T05:14:59;9.30;99.90
21312;DHT22;18076;52.154;10.570;2024-02-16T05:17:25;9.30;99.90
21312;DHT22;18076;52.154;10.570;2024-02-16T05:19:50;9.30;99.90
21312;DHT22;18076;52.154;10.570;2024-02-16T05:22:16;9.30;99.90
21312;DHT22;18076;52.154;10.570;2024-02-16T05:24:44;9.30;99.90
21312;DHT22;18076;52.154;10.570;2024-02-16T05:27:10;9.30;99.90
21312;DHT22;18076;52.154;10.570;2024-02-16T05:29:36;9.30;99.90
21312;DHT22;18076;52.154;10.570;2024-02-16T05:32:01;9.20;99.90
21312;DHT22;18076;52.154;10.570;2024-02-16T05:34:27;9.20;99.90
21312;DHT22;18076;52.154;10.570;2024-02-16T05:36:57;9.10;99.90
21312;DHT22;18076;52.154;10.570;2024-02-16T05:39:23;9.10;99.90
21312;DHT22;18076;52.154;10.570;2024-02-16T05:41:52;9.10;99.90
21312;DHT22;18076;52.154;10.570;2024-02-16T05:44:18;9.10;99.90
21312;DHT22;18076;52.154;10.570;2024-02-16T05:46:45;9.10;99.90
21312;DHT22;18076;52.154;10.570;2024-02-16T05:49:11;9.00;99.90
21312;DHT22;18076;52.154;10.570;2024-02-16T05:51:36;9.10;99.90
21312;DHT22;18076;52.154;10.570;2024-02-16T05:54:02;9.10;99.90
21312;DHT22;18076;52.154;10.570;2024-02-16T05:56:28;9.20;99.90
21312;DHT22;18076;52.154;10.570;2024-02-16T05:58:54;9.30;99.90
21312;DHT22;18076;52.154;10.570;2024-02-16T06:01:19;9.40;99.90
21312;DHT22;18076;52.154;10.570;2024-02-16T06:03:45;9.60;99.90
21312;DHT22;18076;52.154;10.570;2024-02-16T06:06:10;9.80;99.90
21312;DHT22;18076;52.154;10.570;2024-02-16T06:08:36;9.80;99.90
21312;DHT22;18076;52.154;10.570;2024-02-16T06:11:01;9.80;99.90
21312;DHT22;18076;52.154;10.570;2024-02-16T06:13:36;9.80;99.90
21312;DHT22;18076;52.154;10.570;2024-02-16T06:16:05;9.80;99.90
21312;DHT22;18076;52.154;10.570;2024-02-16T06:18:34;10.00;99.90
21312;DHT22;18076;52.154;10.570;2024-02-16T06:20:59;10.20;99.90
21312;DHT22;18076;52.154;10.570;2024-02-16T06:23:25;10.60;99.90
21312;DHT22;18076;52.154;10.570;2024-02-16T06:25:50;11.20;99.90
21312;DHT22;18076;52.154;10.570;2024-02-16T06:28:16;11.70;99.90
21312;DHT22;18076;52.154;10.570;2024-02-16T06:30:42;12.30;99.90
21312;DHT22;18076;52.154;10.570;2024-02-16T06:33:07;12.40;99.90
21312;DHT22;18076;52.154;10.570;2024-02-16T06:35:33;12.40;99.90
21312;DHT22;18076;52.154;10.570;2024-02-16T06:37:58;12.50;99.90
21312;DHT22;18076;52.154;10.570;2024-02-16T06:40:24;12.40;99.90
21312;DHT22;18076;52.154;10.570;2024-02-16T06:42:51;12.40;99.90
21312;DHT22;18076;52.154;10.570;2024-02-16T06:45:17;12.50;99.90
21312;DHT22;18076;52.154;10.570;2024-02-16T06:47:42;12.60;99.90
21312;DHT22;18076;52.154;10.570;2024-02-16T06:50:08;12.70;99.90
21312;DHT22;18076;52.154;10.570;2024-02-16T06:52:34;12.80;99.90
21312;DHT22;18076;52.154;10.570;2024-02-16T06:54:59;12.80;99.90
21312;DHT22;18076;52.154;10.570;2024-02-16T06:57:25;12.90;99.90
21312;DHT22;18076;52.154;10.570;2024-02-16T06:59:51;13.00;99.90
21312;DHT22;18076;52.154;10.570;2024-02-16T07:02:18;13.10;99.90
21312;DHT22;18076;52.154;10.570;2024-02-16T07:04:44;13.10;99.90
21312;DHT22;18076;52.154;10.570;2024-02-16T07:07:11;13.20;99.90
21312;DHT22;18076;52.154;10.570;2024-02-16T07:09:36;13.20;99.90
21312;DHT22;18076;52.154;10.570;2024-02-16T07:12:02;13.10;99.90
21312;DHT22;18076;52.154;10.570;2024-02-16T07:14:28;13.10;99.90
21312;DHT22;18076;52.154;10.570;2024-02-16T07:16:53;13.10;99.90
21312;DHT22;18076;52.154;10.570;2024-02-16T07:19:19;13.00;99.90
21312;DHT22;18076;52.154;10.570;2024-02-16T07:21:44;13.00;99.90
21312;DHT22;18076;52.154;10.570;2024-02-16T07:24:10;13.00;99.90
21312;DHT22;18076;52.154;10.570;2024-02-16T07:26:35;13.00;99.90
21312;DHT22;18076;52.154;10.570;2024-02-16T07:29:01;13.10;99.90
21312;DHT22;18076;52.154;10.570;2024-02-16T07:31:31;13.20;99.90
21312;DHT22;18076;52.154;10.570;2024-02-16T07:33:57;13.20;99.90
21312;DHT22;18076;52.154;10.570;2024-02-16T07:36:22;13.30;99.90
21312;DHT22;18076;52.154;10.570;2024-02-16T07:38:48;13.40;99.90
21312;DHT22;18076;52.154;10.570;2024-02-16T07:41:13;13.40;99.90
21312;DHT22;18076;52.154;10.570;2024-02-16T07:43:39;13.50;99.90
21312;DHT22;18076;52.154;10.570;2024-02-16T07:46:04;13.50;99.90
21312;DHT22;18076;52.154;10.570;2024-02-16T07:48:30;13.60;99.90
21312;DHT22;18076;52.154;10.570;2024-02-16T07:50:56;13.70;99.90
21312;DHT22;18076;52.154;10.570;2024-02-16T07:53:24;13.70;99.90
21312;DHT22;18076;52.154;10.570;2024-02-16T07:55:52;13.70;99.90
21312;DHT22;18076;52.154;10.570;2024-02-16T07:58:17;13.70;99.90
21312;DHT22;18076;52.154;10.570;2024-02-16T08:00:43;13.70;99.90
21312;DHT22;18076;52.154;10.570;2024-02-16T08:03:09;13.60;99.90
21312;DHT22;18076;52.154;10.570;2024-02-16T08:05:34;13.60;99.90
21312;DHT22;18076;52.154;10.570;2024-02-16T08:08:00;13.60;99.90
21312;DHT22;18076;52.154;10.570;2024-02-16T08:10:26;13.60;99.90
21312;DHT22;18076;52.154;10.570;2024-02-16T08:12:51;13.70;99.90
21312;DHT22;18076;52.154;10.570;2024-02-16T08:15:17;13.80;99.90
21312;DHT22;18076;52.154;10.570;2024-02-16T08:17:48;13.90;99.90
21312;DHT22;18076;52.154;10.570;2024-02-16T08:20:15;14.00;99.90
21312;DHT22;18076;52.154;10.570;2024-02-16T08:22:40;14.00;99.90
21312;DHT22;18076;52.154;10.570;2024-02-16T08:25:06;14.10;99.90
21312;DHT22;18076;52.154;10.570;2024-02-16T08:27:32;14.10;99.90
21312;DHT22;18076;52.154;10.570;2024-02-16T08:29:58;14.10;99.90
21312;DHT22;18076;52.154;10.570;2024-02-16T08:32:23;14.10;99.90
21312;DHT22;18076;52.154;10.570;2024-02-16T08:34:49;14.20;99.90
21312;DHT22;18076;52.154;10.570;2024-02-16T08:37:15;14.20;99.90
21312;DHT22;18076;52.154;10.570;2024-02-16T08:39:41;14.20;99.90
21312;DHT22;18076;52.154;10.570;2024-02-16T08:42:07;14.30;99.90
21312;DHT22;18076;52.154;10.570;2024-02-16T08:44:34;14.60;99.90
21312;DHT22;18076;52.154;10.570;2024-02-16T08:47:00;14.70;99.90
21312;DHT22;18076;52.154;10.570;2024-02-16T08:49:25;14.80;99.90
21312;DHT22;18076;52.154;10.570;2024-02-16T08:51:51;14.90;99.90
21312;DHT22;18076;52.154;10.570;2024-02-16T08:54:16;15.00;99.90
21312;DHT22;18076;52.154;10.570;2024-02-16T08:56:44;15.00;99.90
21312;DHT22;18076;52.154;10.570;2024-02-16T08:59:10;15.10;99.90
21312;DHT22;18076;52.154;10.570;2024-02-16T09:01:36;15.60;99.90
21312;DHT22;18076;52.154;10.570;2024-02-16T09:04:03;16.20;99.90
21312;DHT22;18076;52.154;10.570;2024-02-16T09:06:28;16.50;99.90
21312;DHT22;18076;52.154;10.570;2024-02-16T09:08:54;16.20;99.90
21312;DHT22;18076;52.154;10.570;2024-02-16T09:11:20;16.00;99.90
21312;DHT22;18076;52.154;10.570;2024-02-16T09:13:45;15.90;99.90
21312;DHT22;18076;52.154;10.570;2024-02-16T09:16:11;15.80;99.90
21312;DHT22;18076;52.154;10.570;2024-02-16T09:18:37;15.80;99.90
21312;DHT22;18076;52.154;10.570;2024-02-16T09:21:03;15.80;99.90
21312;DHT22;18076;52.154;10.570;2024-02-16T09:23:29;15.80;99.90
21312;DHT22;18076;52.154;10.570;2024-02-16T09:25:54;15.90;99.90
21312;DHT22;18076;52.154;10.570;2024-02-16T09:28:20;16.30;99.90
21312;DHT22;18076;52.154;10.570;2024-02-16T09:30:49;16.50;99.90
21312;DHT22;18076;52.154;10.570;2024-02-16T09:33:14;16.50;99.90
21312;DHT22;18076;52.154;10.570;2024-02-16T09:35:40;16.50;99.90
21312;DHT22;18076;52.154;10.570;2024-02-16T09:38:06;16.30;99.90
21312;DHT22;18076;52.154;10.570;2024-02-16T09:40:31;16.30;99.90
21312;DHT22;18076;52.154;10.570;2024-02-16T09:43:00;16.50;99.90
21312;DHT22;18076;52.154;10.570;2024-02-16T09:45:26;16.50;99.90
21312;DHT22;18076;52.154;10.570;2024-02-16T09:47:52;16.50;99.90
21312;DHT22;18076;52.154;10.570;2024-02-16T09:50:20;16.40;99.90
21312;DHT22;18076;52.154;10.570;2024-02-16T09:52:47;16.20;99.90
21312;DHT22;18076;52.154;10.570;2024-02-16T09:55:13;16.10;99.90
21312;DHT22;18076;52.154;10.570;2024-02-16T09:57:39;16.10;99.90
21312;DHT22;18076;52.154;10.570;2024-02-16T10:00:05;16.10;99.90
21312;DHT22;18076;52.154;10.570;2024-02-16T10:02:43;16.10;99.90
21312;DHT22;18076;52.154;10.570;2024-02-16T10:05:16;16.10;99.90
21312;DHT22;18076;52.154;10.570;2024-02-16T10:07:42;16.20;99.90
21312;DHT22;18076;52.154;10.570;2024-02-16T10:10:24;16.20;99.90
21312;DHT22;18076;52.154;10.570;2024-02-16T10:13:06;16.30;99.90
21312;DHT22;18076;52.154;10.570;2024-02-16T10:15:32;16.40;99.90
21312;DHT22;18076;52.154;10.570;2024-02-16T10:18:04;16.40;99.90
21312;DHT22;18076;52.154;10.570;2024-02-16T10:20:30;16.50;99.90
21312;DHT22;18076;52.154;10.570;2024-02-16T10:25:47;16.70;99.90
21312;DHT22;18076;52.154;10.570;2024-02-16T10:28:13;16.90;99.90
21312;DHT22;18076;52.154;10.570;2024-02-16T10:30:40;17.00;99.90
21312;DHT22;18076;52.154;10.570;2024-02-16T10:33:08;17.10;99.90
21312;DHT22;18076;52.154;10.570;2024-02-16T10:35:37;17.10;99.90
21312;DHT22;18076;52.154;10.570;2024-02-16T10:38:03;17.20;99.90
21312;DHT22;18076;52.154;10.570;2024-02-16T10:40:32;17.60;99.90
21312;DHT22;18076;52.154;10.570;2024-02-16T10:43:00;18.50;99.90
21312;DHT22;18076;52.154;10.570;2024-02-16T10:45:29;19.30;99.90
21312;DHT22;18076;52.154;10.570;2024-02-16T10:47:55;19.50;99.90
21312;DHT22;18076;52.154;10.570;2024-02-16T10:50:20;19.20;99.90
21312;DHT22;18076;52.154;10.570;2024-02-16T10:52:46;19.20;99.90
21312;DHT22;18076;52.154;10.570;2024-02-16T10:55:13;19.20;99.90
21312;DHT22;18076;52.154;10.570;2024-02-16T10:57:39;19.20;99.90
21312;DHT22;18076;52.154;10.570;2024-02-16T11:00:08;19.30;99.90
21312;DHT22;18076;52.154;10.570;2024-02-16T11:05:18;19.40;99.90
21312;DHT22;18076;52.154;10.570;2024-02-16T11:07:44;19.00;99.90
21312;DHT22;18076;52.154;10.570;2024-02-16T11:10:11;18.90;99.90
21312;DHT22;18076;52.154;10.570;2024-02-16T11:12:44;18.70;99.90
21312;DHT22;18076;52.154;10.570;2024-02-16T11:15:14;18.50;99.90
21312;DHT22;18076;52.154;10.570;2024-02-16T11:17:40;18.20;99.90
21312;DHT22;18076;52.154;10.570;2024-02-16T11:20:06;17.80;99.90
21312;DHT22;18076;52.154;10.570;2024-02-16T11:22:32;17.40;99.90
21312;DHT22;18076;52.154;10.570;2024-02-16T11:25:04;17.10;99.90
21312;DHT22;18076;52.154;10.570;2024-02-16T11:27:31;17.20;99.90
21312;DHT22;18076;52.154;10.570;2024-02-16T11:29:57;17.80;99.90
21312;DHT22;18076;52.154;10.570;2024-02-16T11:32:25;18.00;99.90
21312;DHT22;18076;52.154;10.570;2024-02-16T11:34:50;17.90;99.90
21312;DHT22;18076;52.154;10.570;2024-02-16T11:37:16;17.80;99.90
21312;DHT22;18076;52.154;10.570;2024-02-16T11:39:42;17.50;99.90
21312;DHT22;18076;52.154;10.570;2024-02-16T11:42:10;17.30;99.90
21312;DHT22;18076;52.154;10.570;2024-02-16T11:44:36;17.00;99.90
21312;DHT22;18076;52.154;10.570;2024-02-16T11:47:05;16.60;99.90
21312;DHT22;18076;52.154;10.570;2024-02-16T11:49:32;16.50;99.90
21312;DHT22;18076;52.154;10.570;2024-02-16T11:52:00;16.30;99.90
21312;DHT22;18076;52.154;10.570;2024-02-16T11:54:26;16.20;99.90
21312;DHT22;18076;52.154;10.570;2024-02-16T11:56:52;16.00;99.90
21312;DHT22;18076;52.154;10.570;2024-02-16T11:59:18;16.00;99.90
21312;DHT22;18076;52.154;10.570;2024-02-16T12:01:50;15.90;99.90
21312;DHT22;18076;52.154;10.570;2024-02-16T12:04:34;15.90;99.90
21312;DHT22;18076;52.154;10.570;2024-02-16T12:07:01;15.90;99.90
21312;DHT22;18076;52.154;10.570;2024-02-16T12:09:27;15.90;99.90
21312;DHT22;18076;52.154;10.570;2024-02-16T12:11:53;16.00;99.90
21312;DHT22;18076;52.154;10.570;2024-02-16T12:14:19;16.00;99.90
21312;DHT22;18076;52.154;10.570;2024-02-16T12:16:51;16.00;99.90
21312;DHT22;18076;52.154;10.570;2024-02-16T12:19:20;15.90;99.90
21312;DHT22;18076;52.154;10.570;2024-02-16T12:21:54;15.90;99.90
21312;DHT22;18076;52.154;10.570;2024-02-16T12:24:19;15.90;99.90
21312;DHT22;18076;52.154;10.570;2024-02-16T12:26:46;15.80;99.90
21312;DHT22;18076;52.154;10.570;2024-02-16T12:29:12;15.80;99.90
21312;DHT22;18076;52.154;10.570;2024-02-16T12:31:41;15.80;99.90
21312;DHT22;18076;52.154;10.570;2024-02-16T12:34:08;15.80;99.90
21312;DHT22;18076;52.154;10.570;2024-02-16T12:36:34;15.80;99.90
21312;DHT22;18076;52.154;10.570;2024-02-16T12:39:00;15.80;99.90
21312;DHT22;18076;52.154;10.570;2024-02-16T12:41:26;15.80;99.90
21312;DHT22;18076;52.154;10.570;2024-02-16T12:43:51;15.80;99.90
21312;DHT22;18076;52.154;10.570;2024-02-16T12:46:18;15.80;99.90
21312;DHT22;18076;52.154;10.570;2024-02-16T12:48:43;15.80;99.90
21312;DHT22;18076;52.154;10.570;2024-02-16T12:51:09;15.80;99.90
21312;DHT22;18076;52.154;10.570;2024-02-16T12:53:36;15.80;99.90
21312;DHT22;18076;52.154;10.570;2024-02-16T12:56:09;15.80;99.90
21312;DHT22;18076;52.154;10.570;2024-02-16T12:58:37;15.70;99.90
21312;DHT22;18076;52.154;10.570;2024-02-16T13:01:02;15.70;99.90
21312;DHT22;18076;52.154;10.570;2024-02-16T13:03:28;15.70;99.90
21312;DHT22;18076;52.154;10.570;2024-02-16T13:05:53;15.60;99.90
21312;DHT22;18076;52.154;10.570;2024-02-16T13:08:19;15.60;99.90
21312;DHT22;18076;52.154;10.570;2024-02-16T13:10:45;15.60;99.90
21312;DHT22;18076;52.154;10.570;2024-02-16T13:13:10;15.50;99.90
21312;DHT22;18076;52.154;10.570;2024-02-16T13:15:36;15.50;99.90
21312;DHT22;18076;52.154;10.570;2024-02-16T13:18:01;15.50;99.90
21312;DHT22;18076;52.154;10.570;2024-02-16T13:20:27;15.50;99.90
21312;DHT22;18076;52.154;10.570;2024-02-16T13:22:52;15.50;99.90
21312;DHT22;18076;52.154;10.570;2024-02-16T13:25:18;15.50;99.90
21312;DHT22;18076;52.154;10.570;2024-02-16T13:27:44;15.50;99.90
21312;DHT22;18076;52.154;10.570;2024-02-16T13:30:10;15.60;99.90
21312;DHT22;18076;52.154;10.570;2024-02-16T13:32:35;15.50;99.90
21312;DHT22;18076;52.154;10.570;2024-02-16T13:35:07;15.50;99.90
21312;DHT22;18076;52.154;10.570;2024-02-16T13:37:33;15.60;99.90
21312;DHT22;18076;52.154;10.570;2024-02-16T13:39:58;15.60;99.90
21312;DHT22;18076;52.154;10.570;2024-02-16T13:42:24;15.60;99.90
21312;DHT22;18076;52.154;10.570;2024-02-16T13:44:51;15.60;99.90
21312;DHT22;18076;52.154;10.570;2024-02-16T13:47:17;15.60;99.90
21312;DHT22;18076;52.154;10.570;2024-02-16T13:49:42;15.60;99.90
21312;DHT22;18076;52.154;10.570;2024-02-16T13:52:08;15.60;99.90
21312;DHT22;18076;52.154;10.570;2024-02-16T13:54:34;15.60;99.90
21312;DHT22;18076;52.154;10.570;2024-02-16T13:57:00;15.50;99.90
21312;DHT22;18076;52.154;10.570;2024-02-16T13:59:26;15.50;99.90
21312;DHT22;18076;52.154;10.570;2024-02-16T14:01:52;15.40;99.90
21312;DHT22;18076;52.154;10.570;2024-02-16T14:04:18;15.40;99.90
21312;DHT22;18076;52.154;10.570;2024-02-16T14:06:45;15.30;99.90
21312;DHT22;18076;52.154;10.570;2024-02-16T14:09:10;15.30;99.90
21312;DHT22;18076;52.154;10.570;2024-02-16T14:11:39;15.20;99.90
21312;DHT22;18076;52.154;10.570;2024-02-16T14:14:05;15.20;99.90
21312;DHT22;18076;52.154;10.570;2024-02-16T14:16:31;15.20;99.90
21312;DHT22;18076;52.154;10.570;2024-02-16T14:18:57;15.10;99.90
21312;DHT22;18076;52.154;10.570;2024-02-16T14:21:22;15.10;99.90
21312;DHT22;18076;52.154;10.570;2024-02-16T14:23:48;15.00;99.90
21312;DHT22;18076;52.154;10.570;2024-02-16T14:26:16;15.00;99.90
21312;DHT22;18076;52.154;10.570;2024-02-16T14:28:43;15.00;99.90
21312;DHT22;18076;52.154;10.570;2024-02-16T14:31:08;14.90;99.90
21312;DHT22;18076;52.154;10.570;2024-02-16T14:33:36;15.00;99.90
21312;DHT22;18076;52.154;10.570;2024-02-16T14:36:02;15.00;99.90
21312;DHT22;18076;52.154;10.570;2024-02-16T14:38:28;14.90;99.90
21312;DHT22;18076;52.154;10.570;2024-02-16T14:40:54;14.90;99.90
21312;DHT22;18076;52.154;10.570;2024-02-16T14:43:19;14.80;99.90
21312;DHT22;18076;52.154;10.570;2024-02-16T14:45:47;14.80;99.90
21312;DHT22;18076;52.154;10.570;2024-02-16T14:48:13;14.80;99.90
21312;DHT22;18076;52.154;10.570;2024-02-16T14:50:39;14.80;99.90
21312;DHT22;18076;52.154;10.570;2024-02-16T14:53:06;14.70;99.90
21312;DHT22;18076;52.154;10.570;2024-02-16T14:55:31;14.70;99.90
21312;DHT22;18076;52.154;10.570;2024-02-16T14:58:00;14.70;99.90
21312;DHT22;18076;52.154;10.570;2024-02-16T15:00:26;14.60;99.90
21312;DHT22;18076;52.154;10.570;2024-02-16T15:02:51;14.60;99.90
21312;DHT22;18076;52.154;10.570;2024-02-16T15:05:19;14.60;99.90
21312;DHT22;18076;52.154;10.570;2024-02-16T15:07:46;14.60;99.90
21312;DHT22;18076;52.154;10.570;2024-02-16T15:10:11;14.60;99.90
21312;DHT22;18076;52.154;10.570;2024-02-16T15:12:37;14.50;99.90
21312;DHT22;18076;52.154;10.570;2024-02-16T15:15:05;14.50;99.90
21312;DHT22;18076;52.154;10.570;2024-02-16T15:17:31;14.50;99.90
21312;DHT22;18076;52.154;10.570;2024-02-16T15:19:57;14.50;99.90
21312;DHT22;18076;52.154;10.570;2024-02-16T15:22:22;14.50;99.90